sensor_id;sensor_type;location;lat;lon;timestamp;P1;durP1;ratioP1;P2;durP2;ratioP2
8337;SDS011;4206;48.634;9.516;2023-06-14T00:01:31;6.83;;;3.17;;
8337;SDS011;4206;48.634;9.516;2023-06-14T00:04:00;4.13;;;3.23;;
8337;SDS011;4206;48.634;9.516;2023-06-14T00:06:28;5.80;;;2.60;;
8337;SDS011;4206;48.634;9.516;2023-06-14T00:08:55;4.00;;;3.50;;
8337;SDS011;4206;48.634;9.516;2023-06-14T00:11:22;4.17;;;3.43;;
8337;SDS011;4206;48.634;9.516;2023-06-14T00:13:49;7.00;;;3.20;;
8337;SDS011;4206;48.634;9.516;2023-06-14T00:16:16;3.83;;;3.30;;
8337;SDS011;4206;48.634;9.516;2023-06-14T00:18:43;4.90;;;3.30;;
8337;SDS011;4206;48.634;9.516;2023-06-14T00:21:11;7.63;;;3.10;;
8337;SDS011;4206;48.634;9.516;2023-06-14T00:23:38;5.10;;;3.17;;
8337;SDS011;4206;48.634;9.516;2023-06-14T00:26:05;4.23;;;2.93;;
8337;SDS011;4206;48.634;9.516;2023-06-14T00:28:32;3.80;;;3.00;;
8337;SDS011;4206;48.634;9.516;2023-06-14T00:30:59;5.10;;;3.63;;
8337;SDS011;4206;48.634;9.516;2023-06-14T00:33:25;4.60;;;3.37;;
8337;SDS011;4206;48.634;9.516;2023-06-14T00:35:52;8.50;;;3.90;;
8337;SDS011;4206;48.634;9.516;2023-06-14T00:38:20;7.00;;;4.20;;
8337;SDS011;4206;48.634;9.516;2023-06-14T00:40:47;9.97;;;3.23;;
8337;SDS011;4206;48.634;9.516;2023-06-14T00:43:14;8.43;;;3.33;;
8337;SDS011;4206;48.634;9.516;2023-06-14T00:45:41;4.23;;;3.83;;
8337;SDS011;4206;48.634;9.516;2023-06-14T00:48:08;5.93;;;3.90;;
8337;SDS011;4206;48.634;9.516;2023-06-14T00:50:36;4.90;;;3.07;;
8337;SDS011;4206;48.634;9.516;2023-06-14T00:53:04;4.50;;;3.70;;
8337;SDS011;4206;48.634;9.516;2023-06-14T00:55:32;10.73;;;3.00;;
8337;SDS011;4206;48.634;9.516;2023-06-14T00:57:59;5.67;;;3.20;;
8337;SDS011;4206;48.634;9.516;2023-06-14T01:00:26;7.30;;;3.40;;
8337;SDS011;4206;48.634;9.516;2023-06-14T01:02:55;4.50;;;3.60;;
8337;SDS011;4206;48.634;9.516;2023-06-14T01:05:23;6.53;;;3.70;;
8337;SDS011;4206;48.634;9.516;2023-06-14T01:10:36;6.27;;;3.43;;
8337;SDS011;4206;48.634;9.516;2023-06-14T01:13:19;8.60;;;3.63;;
8337;SDS011;4206;48.634;9.516;2023-06-14T01:15:50;4.53;;;3.23;;
8337;SDS011;4206;48.634;9.516;2023-06-14T01:18:18;3.70;;;3.20;;
8337;SDS011;4206;48.634;9.516;2023-06-14T01:20:46;6.00;;;3.43;;
8337;SDS011;4206;48.634;9.516;2023-06-14T01:23:16;6.33;;;3.30;;
8337;SDS011;4206;48.634;9.516;2023-06-14T01:25:44;6.40;;;3.10;;
8337;SDS011;4206;48.634;9.516;2023-06-14T01:28:11;4.50;;;3.30;;
8337;SDS011;4206;48.634;9.516;2023-06-14T01:30:40;4.90;;;3.47;;
8337;SDS011;4206;48.634;9.516;2023-06-14T01:33:12;4.80;;;3.30;;
8337;SDS011;4206;48.634;9.516;2023-06-14T01:35:42;7.60;;;3.60;;
8337;SDS011;4206;48.634;9.516;2023-06-14T01:38:10;5.33;;;3.27;;
8337;SDS011;4206;48.634;9.516;2023-06-14T01:40:39;6.13;;;3.77;;
8337;SDS011;4206;48.634;9.516;2023-06-14T01:43:09;5.33;;;3.03;;
8337;SDS011;4206;48.634;9.516;2023-06-14T01:45:40;4.13;;;3.37;;
8337;SDS011;4206;48.634;9.516;2023-06-14T01:48:08;5.17;;;3.37;;
8337;SDS011;4206;48.634;9.516;2023-06-14T01:50:35;5.80;;;3.50;;
8337;SDS011;4206;48.634;9.516;2023-06-14T01:53:02;5.30;;;3.80;;
8337;SDS011;4206;48.634;9.516;2023-06-14T01:55:30;7.23;;;4.20;;
8337;SDS011;4206;48.634;9.516;2023-06-14T01:58:04;4.50;;;3.37;;
8337;SDS011;4206;48.634;9.516;2023-06-14T02:00:31;4.10;;;3.00;;
8337;SDS011;4206;48.634;9.516;2023-06-14T02:02:58;4.37;;;3.10;;
8337;SDS011;4206;48.634;9.516;2023-06-14T02:05:26;8.80;;;4.37;;
8337;SDS011;4206;48.634;9.516;2023-06-14T02:07:53;5.10;;;3.60;;
8337;SDS011;4206;48.634;9.516;2023-06-14T02:10:20;5.73;;;3.73;;
8337;SDS011;4206;48.634;9.516;2023-06-14T02:12:47;7.37;;;4.33;;
8337;SDS011;4206;48.634;9.516;2023-06-14T02:15:14;5.80;;;4.20;;
8337;SDS011;4206;48.634;9.516;2023-06-14T02:17:46;5.80;;;4.00;;
8337;SDS011;4206;48.634;9.516;2023-06-14T02:20:15;7.83;;;3.50;;
8337;SDS011;4206;48.634;9.516;2023-06-14T02:22:43;5.60;;;3.40;;
8337;SDS011;4206;48.634;9.516;2023-06-14T02:25:11;6.40;;;4.17;;
8337;SDS011;4206;48.634;9.516;2023-06-14T02:27:38;7.87;;;4.00;;
8337;SDS011;4206;48.634;9.516;2023-06-14T02:30:06;4.83;;;4.07;;
8337;SDS011;4206;48.634;9.516;2023-06-14T02:32:33;6.73;;;4.03;;
8337;SDS011;4206;48.634;9.516;2023-06-14T02:35:02;5.30;;;3.70;;
8337;SDS011;4206;48.634;9.516;2023-06-14T02:37:30;4.70;;;3.50;;
8337;SDS011;4206;48.634;9.516;2023-06-14T02:39:57;5.00;;;3.47;;
8337;SDS011;4206;48.634;9.516;2023-06-14T02:42:25;7.10;;;3.50;;
8337;SDS011;4206;48.634;9.516;2023-06-14T02:44:52;7.60;;;3.77;;
8337;SDS011;4206;48.634;9.516;2023-06-14T02:47:19;4.20;;;3.20;;
8337;SDS011;4206;48.634;9.516;2023-06-14T02:49:46;5.83;;;4.40;;
8337;SDS011;4206;48.634;9.516;2023-06-14T02:52:13;7.37;;;4.37;;
8337;SDS011;4206;48.634;9.516;2023-06-14T02:54:40;5.47;;;4.17;;
8337;SDS011;4206;48.634;9.516;2023-06-14T02:57:07;4.93;;;4.10;;
8337;SDS011;4206;48.634;9.516;2023-06-14T02:59:34;4.90;;;3.80;;
8337;SDS011;4206;48.634;9.516;2023-06-14T03:02:01;4.57;;;3.80;;
8337;SDS011;4206;48.634;9.516;2023-06-14T03:04:29;6.17;;;3.40;;
8337;SDS011;4206;48.634;9.516;2023-06-14T03:07:01;6.87;;;4.17;;
8337;SDS011;4206;48.634;9.516;2023-06-14T03:09:29;8.17;;;3.60;;
8337;SDS011;4206;48.634;9.516;2023-06-14T03:11:56;7.20;;;3.50;;
8337;SDS011;4206;48.634;9.516;2023-06-14T03:14:22;10.70;;;4.50;;
8337;SDS011;4206;48.634;9.516;2023-06-14T03:16:49;5.97;;;3.97;;
8337;SDS011;4206;48.634;9.516;2023-06-14T03:19:17;6.83;;;4.03;;
8337;SDS011;4206;48.634;9.516;2023-06-14T03:21:44;3.80;;;3.40;;
8337;SDS011;4206;48.634;9.516;2023-06-14T03:24:11;5.03;;;4.07;;
8337;SDS011;4206;48.634;9.516;2023-06-14T03:26:38;5.63;;;4.10;;
8337;SDS011;4206;48.634;9.516;2023-06-14T03:29:05;6.47;;;3.90;;
8337;SDS011;4206;48.634;9.516;2023-06-14T03:31:33;5.73;;;3.50;;
8337;SDS011;4206;48.634;9.516;2023-06-14T03:34:01;4.90;;;3.90;;
8337;SDS011;4206;48.634;9.516;2023-06-14T03:36:29;6.57;;;4.23;;
8337;SDS011;4206;48.634;9.516;2023-06-14T03:38:55;10.00;;;4.10;;
8337;SDS011;4206;48.634;9.516;2023-06-14T03:41:22;5.90;;;3.90;;
8337;SDS011;4206;48.634;9.516;2023-06-14T03:43:49;5.63;;;3.70;;
8337;SDS011;4206;48.634;9.516;2023-06-14T03:46:16;6.60;;;3.70;;
8337;SDS011;4206;48.634;9.516;2023-06-14T03:48:43;4.30;;;3.40;;
8337;SDS011;4206;48.634;9.516;2023-06-14T03:51:11;5.27;;;4.00;;
8337;SDS011;4206;48.634;9.516;2023-06-14T03:53:38;7.97;;;4.40;;
8337;SDS011;4206;48.634;9.516;2023-06-14T03:56:19;4.40;;;3.40;;
8337;SDS011;4206;48.634;9.516;2023-06-14T03:58:46;5.00;;;3.73;;
8337;SDS011;4206;48.634;9.516;2023-06-14T04:01:13;6.10;;;4.07;;
8337;SDS011;4206;48.634;9.516;2023-06-14T04:03:40;5.07;;;3.27;;
8337;SDS011;4206;48.634;9.516;2023-06-14T04:06:07;6.17;;;4.07;;
8337;SDS011;4206;48.634;9.516;2023-06-14T04:08:34;5.80;;;3.73;;
8337;SDS011;4206;48.634;9.516;2023-06-14T04:11:01;8.90;;;4.43;;
8337;SDS011;4206;48.634;9.516;2023-06-14T04:13:28;4.80;;;3.73;;
8337;SDS011;4206;48.634;9.516;2023-06-14T04:15:55;6.77;;;4.40;;
8337;SDS011;4206;48.634;9.516;2023-06-14T04:18:23;8.03;;;4.20;;
8337;SDS011;4206;48.634;9.516;2023-06-14T04:20:50;5.73;;;4.10;;
8337;SDS011;4206;48.634;9.516;2023-06-14T04:23:17;5.13;;;3.80;;
8337;SDS011;4206;48.634;9.516;2023-06-14T04:25:44;7.13;;;4.47;;
8337;SDS011;4206;48.634;9.516;2023-06-14T04:28:13;5.20;;;4.30;;
8337;SDS011;4206;48.634;9.516;2023-06-14T04:30:43;9.13;;;4.30;;
8337;SDS011;4206;48.634;9.516;2023-06-14T04:33:11;10.00;;;4.40;;
8337;SDS011;4206;48.634;9.516;2023-06-14T04:35:38;6.80;;;4.47;;
8337;SDS011;4206;48.634;9.516;2023-06-14T04:38:05;5.60;;;4.10;;
8337;SDS011;4206;48.634;9.516;2023-06-14T04:40:35;9.37;;;4.53;;
8337;SDS011;4206;48.634;9.516;2023-06-14T04:43:09;6.60;;;4.77;;
8337;SDS011;4206;48.634;9.516;2023-06-14T04:45:38;7.13;;;5.13;;
8337;SDS011;4206;48.634;9.516;2023-06-14T04:48:06;8.57;;;5.03;;
8337;SDS011;4206;48.634;9.516;2023-06-14T04:50:33;9.60;;;5.00;;
8337;SDS011;4206;48.634;9.516;2023-06-14T04:53:01;7.73;;;5.17;;
8337;SDS011;4206;48.634;9.516;2023-06-14T04:55:29;8.10;;;4.80;;
8337;SDS011;4206;48.634;9.516;2023-06-14T04:57:56;7.10;;;4.60;;
8337;SDS011;4206;48.634;9.516;2023-06-14T05:00:23;6.43;;;5.07;;
8337;SDS011;4206;48.634;9.516;2023-06-14T05:02:50;8.90;;;5.10;;
8337;SDS011;4206;48.634;9.516;2023-06-14T05:05:17;10.40;;;5.10;;
8337;SDS011;4206;48.634;9.516;2023-06-14T05:07:44;7.13;;;5.03;;
8337;SDS011;4206;48.634;9.516;2023-06-14T05:10:11;6.00;;;4.00;;
8337;SDS011;4206;48.634;9.516;2023-06-14T05:12:38;5.30;;;4.50;;
8337;SDS011;4206;48.634;9.516;2023-06-14T05:15:06;8.23;;;4.67;;
8337;SDS011;4206;48.634;9.516;2023-06-14T05:17:35;6.97;;;4.30;;
8337;SDS011;4206;48.634;9.516;2023-06-14T05:20:02;6.30;;;4.63;;
8337;SDS011;4206;48.634;9.516;2023-06-14T05:22:29;11.00;;;5.13;;
8337;SDS011;4206;48.634;9.516;2023-06-14T05:24:56;10.97;;;4.67;;
8337;SDS011;4206;48.634;9.516;2023-06-14T05:27:23;19.30;;;5.70;;
8337;SDS011;4206;48.634;9.516;2023-06-14T05:29:51;7.47;;;5.17;;
8337;SDS011;4206;48.634;9.516;2023-06-14T05:32:21;6.10;;;5.20;;
8337;SDS011;4206;48.634;9.516;2023-06-14T05:34:48;11.23;;;5.27;;
8337;SDS011;4206;48.634;9.516;2023-06-14T05:37:16;8.03;;;4.80;;
8337;SDS011;4206;48.634;9.516;2023-06-14T05:39:43;6.90;;;4.70;;
8337;SDS011;4206;48.634;9.516;2023-06-14T05:42:10;11.70;;;4.70;;
8337;SDS011;4206;48.634;9.516;2023-06-14T05:44:37;6.50;;;4.33;;
8337;SDS011;4206;48.634;9.516;2023-06-14T05:47:05;8.47;;;4.90;;
8337;SDS011;4206;48.634;9.516;2023-06-14T05:49:32;8.57;;;4.33;;
8337;SDS011;4206;48.634;9.516;2023-06-14T05:51:59;7.70;;;4.60;;
8337;SDS011;4206;48.634;9.516;2023-06-14T05:54:26;7.90;;;4.57;;
8337;SDS011;4206;48.634;9.516;2023-06-14T05:56:53;11.40;;;5.17;;
8337;SDS011;4206;48.634;9.516;2023-06-14T05:59:20;8.60;;;4.63;;
8337;SDS011;4206;48.634;9.516;2023-06-14T06:01:47;8.50;;;5.00;;
8337;SDS011;4206;48.634;9.516;2023-06-14T06:04:14;7.87;;;4.40;;
8337;SDS011;4206;48.634;9.516;2023-06-14T06:06:41;16.43;;;5.90;;
8337;SDS011;4206;48.634;9.516;2023-06-14T06:09:08;16.20;;;4.70;;
8337;SDS011;4206;48.634;9.516;2023-06-14T06:11:35;10.33;;;4.33;;
8337;SDS011;4206;48.634;9.516;2023-06-14T06:14:18;8.80;;;4.57;;
8337;SDS011;4206;48.634;9.516;2023-06-14T06:16:45;8.30;;;4.83;;
8337;SDS011;4206;48.634;9.516;2023-06-14T06:19:12;14.20;;;4.60;;
8337;SDS011;4206;48.634;9.516;2023-06-14T06:21:40;9.77;;;4.53;;
8337;SDS011;4206;48.634;9.516;2023-06-14T06:24:07;6.03;;;3.90;;
8337;SDS011;4206;48.634;9.516;2023-06-14T06:26:34;10.90;;;4.23;;
8337;SDS011;4206;48.634;9.516;2023-06-14T06:29:02;5.93;;;4.20;;
8337;SDS011;4206;48.634;9.516;2023-06-14T06:31:30;8.20;;;4.23;;
8337;SDS011;4206;48.634;9.516;2023-06-14T06:33:57;5.70;;;3.80;;
8337;SDS011;4206;48.634;9.516;2023-06-14T06:36:24;9.23;;;4.67;;
8337;SDS011;4206;48.634;9.516;2023-06-14T06:38:52;5.83;;;4.23;;
8337;SDS011;4206;48.634;9.516;2023-06-14T06:41:19;6.20;;;4.00;;
8337;SDS011;4206;48.634;9.516;2023-06-14T06:43:46;9.83;;;5.60;;
8337;SDS011;4206;48.634;9.516;2023-06-14T06:46:13;5.70;;;4.13;;
8337;SDS011;4206;48.634;9.516;2023-06-14T06:48:40;7.07;;;4.10;;
8337;SDS011;4206;48.634;9.516;2023-06-14T06:51:07;5.33;;;4.50;;
8337;SDS011;4206;48.634;9.516;2023-06-14T06:53:34;9.37;;;4.90;;
8337;SDS011;4206;48.634;9.516;2023-06-14T06:56:09;5.93;;;3.80;;
8337;SDS011;4206;48.634;9.516;2023-06-14T06:58:36;5.20;;;3.90;;
8337;SDS011;4206;48.634;9.516;2023-06-14T07:01:03;9.43;;;4.40;;
8337;SDS011;4206;48.634;9.516;2023-06-14T07:03:30;4.20;;;3.67;;
8337;SDS011;4206;48.634;9.516;2023-06-14T07:05:57;5.80;;;3.87;;
8337;SDS011;4206;48.634;9.516;2023-06-14T07:08:24;7.90;;;4.00;;
8337;SDS011;4206;48.634;9.516;2023-06-14T07:10:51;10.27;;;4.13;;
8337;SDS011;4206;48.634;9.516;2023-06-14T07:13:24;4.07;;;3.60;;
8337;SDS011;4206;48.634;9.516;2023-06-14T07:15:58;6.50;;;3.60;;
8337;SDS011;4206;48.634;9.516;2023-06-14T07:18:27;6.30;;;4.03;;
8337;SDS011;4206;48.634;9.516;2023-06-14T07:20:54;9.30;;;3.73;;
8337;SDS011;4206;48.634;9.516;2023-06-14T07:23:22;4.30;;;3.57;;
8337;SDS011;4206;48.634;9.516;2023-06-14T07:25:51;4.43;;;3.37;;
8337;SDS011;4206;48.634;9.516;2023-06-14T07:28:18;6.63;;;3.93;;
8337;SDS011;4206;48.634;9.516;2023-06-14T07:30:45;5.90;;;3.50;;
8337;SDS011;4206;48.634;9.516;2023-06-14T07:33:12;8.60;;;3.50;;
8337;SDS011;4206;48.634;9.516;2023-06-14T07:35:40;5.33;;;4.30;;
8337;SDS011;4206;48.634;9.516;2023-06-14T07:38:08;10.70;;;3.83;;
8337;SDS011;4206;48.634;9.516;2023-06-14T07:40:35;8.23;;;3.83;;
8337;SDS011;4206;48.634;9.516;2023-06-14T07:43:02;5.20;;;4.00;;
8337;SDS011;4206;48.634;9.516;2023-06-14T07:45:29;5.23;;;3.63;;
8337;SDS011;4206;48.634;9.516;2023-06-14T07:47:56;4.90;;;3.10;;
8337;SDS011;4206;48.634;9.516;2023-06-14T07:50:23;6.17;;;3.47;;
8337;SDS011;4206;48.634;9.516;2023-06-14T07:52:51;3.63;;;3.10;;
8337;SDS011;4206;48.634;9.516;2023-06-14T07:55:18;10.57;;;3.87;;
8337;SDS011;4206;48.634;9.516;2023-06-14T07:57:45;6.73;;;3.67;;
8337;SDS011;4206;48.634;9.516;2023-06-14T08:00:12;9.47;;;3.83;;
8337;SDS011;4206;48.634;9.516;2023-06-14T08:02:42;14.00;;;3.60;;
8337;SDS011;4206;48.634;9.516;2023-06-14T08:05:10;9.40;;;4.23;;
8337;SDS011;4206;48.634;9.516;2023-06-14T08:07:38;4.63;;;3.13;;
8337;SDS011;4206;48.634;9.516;2023-06-14T08:10:05;4.23;;;3.30;;
8337;SDS011;4206;48.634;9.516;2023-06-14T08:12:33;7.40;;;3.50;;
8337;SDS011;4206;48.634;9.516;2023-06-14T08:15:01;3.70;;;3.20;;
8337;SDS011;4206;48.634;9.516;2023-06-14T08:17:34;5.20;;;3.70;;
8337;SDS011;4206;48.634;9.516;2023-06-14T08:20:01;5.00;;;2.97;;
8337;SDS011;4206;48.634;9.516;2023-06-14T08:22:31;4.23;;;3.33;;
8337;SDS011;4206;48.634;9.516;2023-06-14T08:25:00;6.23;;;3.03;;
8337;SDS011;4206;48.634;9.516;2023-06-14T08:27:27;5.60;;;3.20;;
8337;SDS011;4206;48.634;9.516;2023-06-14T08:29:56;7.70;;;3.40;;
8337;SDS011;4206;48.634;9.516;2023-06-14T08:32:23;5.33;;;3.40;;
8337;SDS011;4206;48.634;9.516;2023-06-14T08:34:50;4.50;;;3.80;;
8337;SDS011;4206;48.634;9.516;2023-06-14T08:37:31;9.37;;;3.30;;
8337;SDS011;4206;48.634;9.516;2023-06-14T08:40:01;4.40;;;3.53;;
8337;SDS011;4206;48.634;9.516;2023-06-14T08:42:32;4.60;;;3.40;;
8337;SDS011;4206;48.634;9.516;2023-06-14T08:45:01;4.90;;;3.40;;
8337;SDS011;4206;48.634;9.516;2023-06-14T08:47:30;6.73;;;3.80;;
8337;SDS011;4206;48.634;9.516;2023-06-14T08:50:07;5.37;;;3.30;;
8337;SDS011;4206;48.634;9.516;2023-06-14T08:52:54;7.93;;;2.87;;
8337;SDS011;4206;48.634;9.516;2023-06-14T08:55:28;5.63;;;3.55;;
8337;SDS011;4206;48.634;9.516;2023-06-14T08:58:00;4.55;;;3.45;;
8337;SDS011;4206;48.634;9.516;2023-06-14T09:00:27;16.10;;;3.80;;
8337;SDS011;4206;48.634;9.516;2023-06-14T09:02:54;3.33;;;2.80;;
8337;SDS011;4206;48.634;9.516;2023-06-14T09:05:25;5.10;;;3.20;;
8337;SDS011;4206;48.634;9.516;2023-06-14T09:07:53;4.28;;;2.92;;
8337;SDS011;4206;48.634;9.516;2023-06-14T09:10:21;4.20;;;3.00;;
8337;SDS011;4206;48.634;9.516;2023-06-14T09:12:49;5.47;;;3.17;;
8337;SDS011;4206;48.634;9.516;2023-06-14T09:15:17;3.20;;;3.00;;
8337;SDS011;4206;48.634;9.516;2023-06-14T09:17:44;6.00;;;3.22;;
8337;SDS011;4206;48.634;9.516;2023-06-14T09:20:11;4.13;;;3.08;;
8337;SDS011;4206;48.634;9.516;2023-06-14T09:22:44;4.80;;;3.60;;
8337;SDS011;4206;48.634;9.516;2023-06-14T09:25:12;5.10;;;2.97;;
8337;SDS011;4206;48.634;9.516;2023-06-14T09:28:01;6.55;;;3.70;;
8337;SDS011;4206;48.634;9.516;2023-06-14T09:30:28;4.00;;;2.78;;
8337;SDS011;4206;48.634;9.516;2023-06-14T09:32:55;3.78;;;3.33;;
8337;SDS011;4206;48.634;9.516;2023-06-14T09:35:26;5.57;;;3.20;;
8337;SDS011;4206;48.634;9.516;2023-06-14T09:37:55;3.50;;;3.17;;
8337;SDS011;4206;48.634;9.516;2023-06-14T09:40:23;3.55;;;3.25;;
8337;SDS011;4206;48.634;9.516;2023-06-14T09:42:50;6.15;;;3.50;;
8337;SDS011;4206;48.634;9.516;2023-06-14T09:45:17;4.78;;;3.30;;
8337;SDS011;4206;48.634;9.516;2023-06-14T09:47:49;3.55;;;3.08;;
8337;SDS011;4206;48.634;9.516;2023-06-14T09:50:31;6.95;;;3.13;;
8337;SDS011;4206;48.634;9.516;2023-06-14T09:53:00;4.05;;;3.47;;
8337;SDS011;4206;48.634;9.516;2023-06-14T09:55:34;4.63;;;3.25;;
8337;SDS011;4206;48.634;9.516;2023-06-14T09:58:04;4.13;;;3.78;;
8337;SDS011;4206;48.634;9.516;2023-06-14T10:00:34;4.88;;;3.55;;
8337;SDS011;4206;48.634;9.516;2023-06-14T10:03:03;4.00;;;3.60;;
8337;SDS011;4206;48.634;9.516;2023-06-14T10:05:39;5.47;;;3.42;;
8337;SDS011;4206;48.634;9.516;2023-06-14T10:08:10;3.88;;;3.45;;
8337;SDS011;4206;48.634;9.516;2023-06-14T10:10:42;6.15;;;3.47;;
8337;SDS011;4206;48.634;9.516;2023-06-14T10:13:09;4.13;;;3.72;;
8337;SDS011;4206;48.634;9.516;2023-06-14T10:20:46;14.80;;;4.13;;
8337;SDS011;4206;48.634;9.516;2023-06-14T10:23:21;6.60;;;3.88;;
8337;SDS011;4206;48.634;9.516;2023-06-14T10:25:54;4.85;;;3.67;;
8337;SDS011;4206;48.634;9.516;2023-06-14T10:28:23;9.25;;;3.65;;
8337;SDS011;4206;48.634;9.516;2023-06-14T10:33:39;4.47;;;3.80;;
8337;SDS011;4206;48.634;9.516;2023-06-14T10:41:27;4.35;;;3.95;;
8337;SDS011;4206;48.634;9.516;2023-06-14T10:46:39;3.70;;;3.40;;
8337;SDS011;4206;48.634;9.516;2023-06-14T10:49:10;4.15;;;3.25;;
8337;SDS011;4206;48.634;9.516;2023-06-14T10:51:38;4.13;;;3.55;;
8337;SDS011;4206;48.634;9.516;2023-06-14T10:54:13;5.72;;;2.83;;
8337;SDS011;4206;48.634;9.516;2023-06-14T10:59:23;3.72;;;3.20;;
8337;SDS011;4206;48.634;9.516;2023-06-14T11:04:23;3.25;;;2.95;;
8337;SDS011;4206;48.634;9.516;2023-06-14T11:07:24;7.05;;;3.75;;
8337;SDS011;4206;48.634;9.516;2023-06-14T11:12:36;2.90;;;2.70;;
8337;SDS011;4206;48.634;9.516;2023-06-14T11:15:06;5.57;;;3.25;;
8337;SDS011;4206;48.634;9.516;2023-06-14T11:17:33;7.85;;;3.13;;
8337;SDS011;4206;48.634;9.516;2023-06-14T11:20:09;4.03;;;3.25;;
8337;SDS011;4206;48.634;9.516;2023-06-14T11:22:38;3.97;;;3.58;;
8337;SDS011;4206;48.634;9.516;2023-06-14T11:25:09;3.95;;;3.50;;
8337;SDS011;4206;48.634;9.516;2023-06-14T11:27:37;3.33;;;3.03;;
8337;SDS011;4206;48.634;9.516;2023-06-14T11:30:06;3.92;;;3.63;;
8337;SDS011;4206;48.634;9.516;2023-06-14T11:32:36;4.45;;;3.72;;
8337;SDS011;4206;48.634;9.516;2023-06-14T11:35:04;7.32;;;3.42;;
8337;SDS011;4206;48.634;9.516;2023-06-14T11:37:32;3.83;;;3.53;;
8337;SDS011;4206;48.634;9.516;2023-06-14T11:40:00;6.70;;;3.33;;
8337;SDS011;4206;48.634;9.516;2023-06-14T11:42:29;7.20;;;3.75;;
8337;SDS011;4206;48.634;9.516;2023-06-14T11:44:56;3.55;;;3.10;;
8337;SDS011;4206;48.634;9.516;2023-06-14T11:47:35;4.93;;;3.28;;
8337;SDS011;4206;48.634;9.516;2023-06-14T11:50:03;4.20;;;3.53;;
8337;SDS011;4206;48.634;9.516;2023-06-14T11:52:32;3.65;;;3.35;;
8337;SDS011;4206;48.634;9.516;2023-06-14T11:55:00;7.82;;;3.28;;
8337;SDS011;4206;48.634;9.516;2023-06-14T11:57:34;5.57;;;3.40;;
8337;SDS011;4206;48.634;9.516;2023-06-14T12:00:06;6.90;;;3.13;;
8337;SDS011;4206;48.634;9.516;2023-06-14T12:02:38;3.58;;;3.00;;
8337;SDS011;4206;48.634;9.516;2023-06-14T12:05:08;4.40;;;3.25;;
8337;SDS011;4206;48.634;9.516;2023-06-14T12:07:37;5.10;;;2.97;;
8337;SDS011;4206;48.634;9.516;2023-06-14T12:10:20;4.63;;;3.15;;
8337;SDS011;4206;48.634;9.516;2023-06-14T12:12:47;4.15;;;3.35;;
8337;SDS011;4206;48.634;9.516;2023-06-14T12:15:14;5.13;;;3.53;;
8337;SDS011;4206;48.634;9.516;2023-06-14T12:17:42;3.70;;;3.20;;
8337;SDS011;4206;48.634;9.516;2023-06-14T12:20:10;4.60;;;3.25;;
8337;SDS011;4206;48.634;9.516;2023-06-14T12:22:50;4.05;;;2.75;;
8337;SDS011;4206;48.634;9.516;2023-06-14T12:28:04;3.92;;;3.15;;
8337;SDS011;4206;48.634;9.516;2023-06-14T12:30:32;7.03;;;3.38;;
8337;SDS011;4206;48.634;9.516;2023-06-14T12:33:00;4.00;;;3.60;;
8337;SDS011;4206;48.634;9.516;2023-06-14T12:35:28;3.38;;;3.08;;
8337;SDS011;4206;48.634;9.516;2023-06-14T12:37:55;4.30;;;3.20;;
8337;SDS011;4206;48.634;9.516;2023-06-14T12:40:23;4.95;;;3.60;;
8337;SDS011;4206;48.634;9.516;2023-06-14T12:42:50;4.68;;;3.05;;
8337;SDS011;4206;48.634;9.516;2023-06-14T12:45:17;5.38;;;3.30;;
8337;SDS011;4206;48.634;9.516;2023-06-14T12:47:44;5.35;;;3.95;;
8337;SDS011;4206;48.634;9.516;2023-06-14T12:50:12;3.78;;;3.40;;
8337;SDS011;4206;48.634;9.516;2023-06-14T12:52:39;7.45;;;3.28;;
8337;SDS011;4206;48.634;9.516;2023-06-14T12:55:06;4.50;;;3.30;;
8337;SDS011;4206;48.634;9.516;2023-06-14T12:57:34;3.40;;;3.10;;
8337;SDS011;4206;48.634;9.516;2023-06-14T13:00:03;7.70;;;3.60;;
8337;SDS011;4206;48.634;9.516;2023-06-14T13:02:32;4.40;;;3.42;;
8337;SDS011;4206;48.634;9.516;2023-06-14T13:04:59;3.92;;;2.97;;
8337;SDS011;4206;48.634;9.516;2023-06-14T13:07:26;7.07;;;3.38;;
8337;SDS011;4206;48.634;9.516;2023-06-14T13:09:53;6.78;;;3.17;;
8337;SDS011;4206;48.634;9.516;2023-06-14T13:12:20;4.25;;;3.30;;
8337;SDS011;4206;48.634;9.516;2023-06-14T13:14:47;5.68;;;3.28;;
8337;SDS011;4206;48.634;9.516;2023-06-14T13:17:14;4.97;;;3.42;;
8337;SDS011;4206;48.634;9.516;2023-06-14T13:19:41;3.65;;;3.30;;
8337;SDS011;4206;48.634;9.516;2023-06-14T13:22:11;3.97;;;2.78;;
8337;SDS011;4206;48.634;9.516;2023-06-14T13:24:38;3.83;;;2.95;;
8337;SDS011;4206;48.634;9.516;2023-06-14T13:27:06;6.00;;;3.10;;
8337;SDS011;4206;48.634;9.516;2023-06-14T13:29:33;3.75;;;3.33;;
8337;SDS011;4206;48.634;9.516;2023-06-14T13:32:03;3.75;;;3.10;;
8337;SDS011;4206;48.634;9.516;2023-06-14T13:34:30;4.25;;;3.08;;
8337;SDS011;4206;48.634;9.516;2023-06-14T13:36:58;3.78;;;3.47;;
8337;SDS011;4206;48.634;9.516;2023-06-14T13:39:25;3.08;;;2.78;;
8337;SDS011;4206;48.634;9.516;2023-06-14T13:41:52;13.20;;;3.20;;
8337;SDS011;4206;48.634;9.516;2023-06-14T13:44:19;4.38;;;3.28;;
8337;SDS011;4206;48.634;9.516;2023-06-14T13:46:47;4.07;;;2.83;;
8337;SDS011;4206;48.634;9.516;2023-06-14T13:49:14;7.15;;;3.15;;
8337;SDS011;4206;48.634;9.516;2023-06-14T13:51:42;5.22;;;3.42;;
8337;SDS011;4206;48.634;9.516;2023-06-14T13:54:12;3.63;;;3.33;;
8337;SDS011;4206;48.634;9.516;2023-06-14T13:56:40;3.67;;;3.17;;
8337;SDS011;4206;48.634;9.516;2023-06-14T13:59:07;4.72;;;3.22;;
8337;SDS011;4206;48.634;9.516;2023-06-14T14:01:36;5.60;;;3.33;;
8337;SDS011;4206;48.634;9.516;2023-06-14T14:04:03;3.22;;;2.80;;
8337;SDS011;4206;48.634;9.516;2023-06-14T14:06:31;5.03;;;3.42;;
8337;SDS011;4206;48.634;9.516;2023-06-14T14:08:58;4.30;;;2.97;;
8337;SDS011;4206;48.634;9.516;2023-06-14T14:11:25;3.72;;;3.03;;
8337;SDS011;4206;48.634;9.516;2023-06-14T14:13:54;4.50;;;3.17;;
8337;SDS011;4206;48.634;9.516;2023-06-14T14:16:21;6.40;;;3.38;;
8337;SDS011;4206;48.634;9.516;2023-06-14T14:18:49;4.97;;;3.67;;
8337;SDS011;4206;48.634;9.516;2023-06-14T14:21:17;5.78;;;3.60;;
8337;SDS011;4206;48.634;9.516;2023-06-14T14:23:44;3.58;;;3.22;;
8337;SDS011;4206;48.634;9.516;2023-06-14T14:26:11;4.22;;;3.20;;
8337;SDS011;4206;48.634;9.516;2023-06-14T14:28:40;4.47;;;3.28;;
8337;SDS011;4206;48.634;9.516;2023-06-14T14:31:07;3.20;;;2.90;;
8337;SDS011;4206;48.634;9.516;2023-06-14T14:33:34;8.13;;;3.50;;
8337;SDS011;4206;48.634;9.516;2023-06-14T14:36:01;5.35;;;2.88;;
8337;SDS011;4206;48.634;9.516;2023-06-14T14:38:30;8.20;;;3.45;;
8337;SDS011;4206;48.634;9.516;2023-06-14T14:40:57;3.63;;;3.13;;
8337;SDS011;4206;48.634;9.516;2023-06-14T14:43:25;5.45;;;3.20;;
8337;SDS011;4206;48.634;9.516;2023-06-14T14:45:53;4.97;;;3.13;;
8337;SDS011;4206;48.634;9.516;2023-06-14T14:48:19;5.68;;;3.40;;
8337;SDS011;4206;48.634;9.516;2023-06-14T14:50:47;5.40;;;2.70;;
8337;SDS011;4206;48.634;9.516;2023-06-14T14:53:14;5.13;;;2.80;;
8337;SDS011;4206;48.634;9.516;2023-06-14T14:55:44;4.50;;;3.45;;
8337;SDS011;4206;48.634;9.516;2023-06-14T14:58:12;4.97;;;2.47;;
8337;SDS011;4206;48.634;9.516;2023-06-14T15:00:44;6.00;;;3.70;;
8337;SDS011;4206;48.634;9.516;2023-06-14T15:03:12;5.30;;;2.87;;
8337;SDS011;4206;48.634;9.516;2023-06-14T15:05:40;5.35;;;2.92;;
8337;SDS011;4206;48.634;9.516;2023-06-14T15:08:07;7.83;;;3.10;;
8337;SDS011;4206;48.634;9.516;2023-06-14T15:10:38;10.00;;;2.70;;
8337;SDS011;4206;48.634;9.516;2023-06-14T15:13:07;3.80;;;2.70;;
8337;SDS011;4206;48.634;9.516;2023-06-14T15:15:35;5.03;;;3.03;;
8337;SDS011;4206;48.634;9.516;2023-06-14T15:18:02;4.70;;;2.93;;
8337;SDS011;4206;48.634;9.516;2023-06-14T15:20:29;5.67;;;3.27;;
8337;SDS011;4206;48.634;9.516;2023-06-14T15:22:56;3.03;;;2.73;;
8337;SDS011;4206;48.634;9.516;2023-06-14T15:25:27;7.53;;;3.10;;
8337;SDS011;4206;48.634;9.516;2023-06-14T15:27:54;3.80;;;2.97;;
8337;SDS011;4206;48.634;9.516;2023-06-14T15:30:22;3.33;;;2.90;;
8337;SDS011;4206;48.634;9.516;2023-06-14T15:32:49;5.40;;;3.03;;
8337;SDS011;4206;48.634;9.516;2023-06-14T15:35:16;7.00;;;3.00;;
8337;SDS011;4206;48.634;9.516;2023-06-14T15:37:44;5.07;;;3.20;;
8337;SDS011;4206;48.634;9.516;2023-06-14T15:40:13;3.20;;;2.90;;
8337;SDS011;4206;48.634;9.516;2023-06-14T15:42:42;3.73;;;2.97;;
8337;SDS011;4206;48.634;9.516;2023-06-14T15:45:09;7.40;;;4.13;;
8337;SDS011;4206;48.634;9.516;2023-06-14T15:47:36;3.60;;;2.70;;
8337;SDS011;4206;48.634;9.516;2023-06-14T15:50:04;4.03;;;2.33;;
8337;SDS011;4206;48.634;9.516;2023-06-14T15:52:34;3.10;;;2.80;;